createdAt,value
2017-08-24T00:02:04.563Z,19.70
2017-08-24T00:04:32.890Z,20.00
2017-08-24T00:07:01.204Z,20.20
2017-08-24T00:09:29.547Z,20.30
2017-08-24T00:11:57.863Z,20.30
2017-08-24T00:14:26.167Z,20.30
2017-08-24T00:16:54.507Z,20.40
2017-08-24T00:19:22.819Z,20.40
2017-08-24T00:21:51.154Z,20.40
2017-08-24T00:24:19.484Z,20.40
2017-08-24T00:26:47.819Z,20.40
2017-08-24T00:29:16.124Z,20.30
2017-08-24T00:31:44.455Z,20.30
2017-08-24T00:34:12.785Z,20.30
2017-08-24T00:36:41.099Z,20.30
2017-08-24T00:39:09.446Z,20.20
2017-08-24T00:41:37.747Z,20.10
2017-08-24T00:44:06.091Z,20.00
2017-08-24T00:46:34.395Z,19.90
2017-08-24T00:49:02.720Z,19.90
2017-08-24T00:51:31.020Z,19.80
2017-08-24T00:53:59.372Z,19.70
2017-08-24T00:56:27.688Z,19.60
2017-08-24T00:58:55.991Z,19.60
2017-08-24T01:01:24.319Z,19.50
2017-08-24T01:03:52.631Z,19.50
2017-08-24T01:06:20.959Z,19.50
2017-08-24T01:08:49.268Z,19.50
2017-08-24T01:11:17.599Z,19.50
2017-08-24T01:13:45.902Z,19.50
2017-08-24T01:16:14.260Z,19.50
2017-08-24T01:18:42.567Z,19.50
2017-08-24T01:21:10.867Z,19.50
2017-08-24T01:23:39.207Z,19.50
2017-08-24T01:26:07.512Z,19.50
2017-08-24T01:28:35.839Z,19.50
2017-08-24T01:31:04.144Z,19.50
2017-08-24T01:33:32.467Z,19.50
2017-08-24T01:36:00.783Z,19.50
2017-08-24T01:38:29.108Z,19.50
2017-08-24T01:40:57.421Z,19.50
2017-08-24T01:43:25.736Z,19.50
2017-08-24T01:45:54.072Z,19.50
2017-08-24T01:48:22.392Z,19.50
2017-08-24T01:50:50.730Z,19.50
2017-08-24T01:53:19.040Z,19.50
2017-08-24T01:55:47.376Z,19.50
2017-08-24T01:58:15.691Z,19.50
2017-08-24T02:00:44.030Z,19.40
2017-08-24T02:03:12.347Z,19.50
2017-08-24T02:05:40.664Z,19.50
2017-08-24T02:08:08.996Z,19.50
2017-08-24T02:10:37.303Z,19.40
2017-08-24T02:13:05.626Z,19.40
2017-08-24T02:15:33.934Z,19.40
2017-08-24T02:18:02.268Z,19.40
2017-08-24T02:20:30.583Z,19.40
2017-08-24T02:22:58.916Z,19.30
2017-08-24T02:25:26.511Z,19.30
2017-08-24T02:27:54.815Z,19.20
2017-08-24T02:30:23.152Z,19.20
2017-08-24T02:32:51.455Z,19.10
2017-08-24T02:35:19.779Z,19.10
2017-08-24T02:37:48.088Z,19.00
2017-08-24T02:40:16.426Z,18.90
2017-08-24T02:42:44.725Z,18.80
2017-08-24T02:45:13.043Z,18.70
2017-08-24T02:47:41.376Z,18.60
2017-08-24T02:50:09.682Z,18.50
2017-08-24T02:52:38.018Z,18.40
2017-08-24T02:55:06.324Z,18.30
2017-08-24T02:57:34.649Z,18.20
2017-08-24T03:00:02.956Z,18.20
2017-08-24T03:02:31.291Z,18.10
2017-08-24T03:04:59.659Z,18.00
2017-08-24T03:07:27.954Z,18.00
2017-08-24T03:09:56.323Z,17.90
2017-08-24T03:12:24.631Z,17.80
2017-08-24T03:14:52.980Z,17.80
2017-08-24T03:17:21.296Z,17.60
2017-08-24T03:19:49.632Z,17.60
2017-08-24T03:22:17.940Z,17.50
2017-08-24T03:24:46.295Z,17.40
2017-08-24T03:27:14.599Z,17.30
2017-08-24T03:29:42.922Z,17.30
2017-08-24T03:32:11.255Z,17.30
2017-08-24T03:34:39.559Z,17.30
2017-08-24T03:37:07.979Z,17.40
2017-08-24T03:39:36.286Z,17.40
2017-08-24T03:42:04.631Z,17.40
2017-08-24T03:44:32.939Z,17.50
2017-08-24T03:47:01.290Z,17.50
2017-08-24T03:49:29.591Z,17.50
2017-08-24T03:51:57.928Z,17.50
2017-08-24T03:54:26.257Z,17.40
2017-08-24T03:56:54.675Z,17.40
2017-08-24T03:59:23.003Z,17.40
2017-08-24T04:01:51.331Z,17.40
2017-08-24T04:04:19.655Z,17.30
2017-08-24T04:06:47.982Z,17.30
2017-08-24T04:09:15.554Z,17.30
2017-08-24T04:11:43.868Z,17.30
2017-08-24T04:14:12.171Z,17.20
2017-08-24T04:16:40.497Z,17.30
2017-08-24T04:19:08.803Z,17.30
2017-08-24T04:21:37.155Z,17.30
2017-08-24T04:24:05.458Z,17.30
2017-08-24T04:26:33.808Z,17.30
2017-08-24T04:29:02.115Z,17.30
2017-08-24T04:31:30.479Z,17.20
2017-08-24T04:33:58.784Z,17.20
2017-08-24T04:36:27.192Z,17.20
2017-08-24T04:38:55.523Z,17.20
2017-08-24T04:41:23.851Z,17.20
2017-08-24T04:43:52.182Z,17.10
2017-08-24T04:46:20.503Z,17.00
2017-08-24T04:48:48.827Z,17.00
2017-08-24T04:51:17.157Z,17.00
2017-08-24T04:53:45.564Z,17.00
2017-08-24T04:56:13.911Z,17.00
2017-08-24T04:58:42.219Z,17.00
2017-08-24T05:01:10.587Z,17.00
2017-08-24T05:03:38.899Z,17.10
2017-08-24T05:06:07.250Z,17.10
2017-08-24T05:08:35.552Z,17.10
2017-08-24T05:11:03.913Z,17.10
2017-08-24T05:13:32.223Z,17.10
2017-08-24T05:16:00.537Z,17.10
2017-08-24T05:18:28.866Z,17.10
2017-08-24T05:20:57.178Z,17.20
2017-08-24T05:23:25.509Z,17.20
2017-08-24T05:25:53.847Z,17.30
2017-08-24T05:28:22.189Z,17.30
2017-08-24T05:30:50.517Z,17.30
2017-08-24T05:33:18.843Z,17.30
2017-08-24T05:35:47.180Z,17.30
2017-08-24T05:38:15.483Z,17.30
2017-08-24T05:40:43.933Z,17.40
2017-08-24T05:43:12.230Z,17.40
2017-08-24T05:45:40.601Z,17.50
2017-08-24T05:48:08.900Z,17.50
2017-08-24T05:50:37.223Z,17.60
2017-08-24T05:53:05.551Z,17.60
2017-08-24T05:55:33.975Z,17.60
2017-08-24T05:58:02.311Z,17.70
2017-08-24T06:00:30.631Z,17.80
2017-08-24T06:02:58.971Z,17.90
2017-08-24T06:05:27.281Z,18.10
2017-08-24T06:07:55.591Z,18.10
2017-08-24T06:10:23.963Z,18.10
2017-08-24T06:12:52.276Z,18.10
2017-08-24T06:15:20.608Z,18.10
2017-08-24T06:17:49.831Z,18.20
2017-08-24T06:20:18.203Z,18.20
2017-08-24T06:22:46.555Z,18.40
2017-08-24T06:25:14.879Z,18.50
2017-08-24T06:27:43.216Z,18.60
2017-08-24T06:30:11.519Z,18.70
2017-08-24T06:32:39.876Z,18.80
2017-08-24T06:35:08.186Z,19.00
2017-08-24T06:37:36.548Z,19.10
2017-08-24T06:40:04.848Z,19.20
2017-08-24T06:42:33.163Z,19.30
2017-08-24T06:45:01.486Z,19.30
2017-08-24T06:47:29.815Z,19.50
2017-08-24T06:49:58.145Z,19.60
2017-08-24T06:52:26.472Z,19.60
2017-08-24T06:54:54.807Z,19.60
2017-08-24T06:57:23.123Z,19.70
2017-08-24T06:59:51.427Z,19.70
2017-08-24T07:02:19.802Z,19.70
2017-08-24T07:04:48.108Z,19.70
2017-08-24T07:07:16.452Z,19.80
2017-08-24T07:09:44.756Z,19.80
2017-08-24T07:12:13.137Z,19.90
2017-08-24T07:14:40.672Z,19.80
2017-08-24T07:17:08.976Z,20.00
2017-08-24T07:19:37.320Z,20.00
2017-08-24T07:22:05.622Z,20.00
2017-08-24T07:24:33.975Z,20.00
2017-08-24T07:27:02.276Z,20.00
2017-08-24T07:29:30.632Z,20.00
2017-08-24T07:31:58.928Z,20.00
2017-08-24T07:34:27.262Z,20.10
2017-08-24T07:36:55.588Z,20.10
2017-08-24T07:39:23.916Z,20.20
2017-08-24T07:41:52.246Z,20.30
2017-08-24T07:44:20.578Z,20.20
2017-08-24T07:46:48.908Z,20.20
2017-08-24T07:49:17.224Z,20.40
2017-08-24T07:51:45.525Z,20.60
2017-08-24T07:54:13.852Z,20.80
2017-08-24T07:56:42.158Z,21.10
2017-08-24T07:59:10.481Z,21.30
2017-08-24T08:01:38.828Z,21.40
2017-08-24T08:04:07.161Z,21.30
2017-08-24T08:06:35.480Z,21.40
2017-08-24T08:09:03.820Z,21.50
2017-08-24T08:11:32.132Z,21.50
2017-08-24T08:14:00.442Z,21.50
2017-08-24T08:16:28.806Z,21.50
2017-08-24T08:18:57.108Z,21.50
2017-08-24T08:21:25.467Z,21.60
2017-08-24T08:23:53.777Z,21.70
2017-08-24T08:26:22.121Z,21.90
2017-08-24T08:28:50.428Z,22.00
2017-08-24T08:31:18.792Z,22.10
2017-08-24T08:33:47.095Z,22.10
2017-08-24T08:36:15.396Z,22.20
2017-08-24T08:38:43.716Z,22.30
2017-08-24T08:41:12.029Z,22.40
2017-08-24T08:43:40.352Z,22.60
2017-08-24T08:46:08.652Z,22.70
2017-08-24T08:48:36.978Z,22.70
2017-08-24T08:51:05.274Z,22.60
2017-08-24T08:53:33.573Z,22.60
2017-08-24T08:56:01.896Z,22.50
2017-08-24T08:58:30.205Z,22.40
2017-08-24T09:00:58.524Z,22.40
2017-08-24T09:03:26.832Z,22.40
2017-08-24T09:05:55.156Z,22.40
2017-08-24T09:08:23.460Z,22.40
2017-08-24T09:10:51.800Z,22.60
2017-08-24T09:13:20.107Z,22.70
2017-08-24T09:15:48.421Z,22.80
2017-08-24T09:18:16.757Z,22.90
2017-08-24T09:20:45.060Z,22.90
2017-08-24T09:23:13.389Z,23.00
2017-08-24T09:25:41.686Z,23.20
2017-08-24T09:28:10.020Z,23.40
2017-08-24T09:30:38.323Z,23.50
2017-08-24T09:33:06.670Z,23.80
2017-08-24T09:35:34.971Z,23.90
2017-08-24T09:38:03.271Z,23.70
2017-08-24T09:40:31.601Z,23.50
2017-08-24T09:42:59.903Z,23.30
2017-08-24T09:45:28.219Z,22.90
2017-08-24T09:47:56.516Z,22.70
2017-08-24T09:50:24.844Z,22.60
2017-08-24T09:52:53.143Z,22.60
2017-08-24T09:55:21.443Z,22.80
2017-08-24T09:57:49.769Z,22.80
2017-08-24T10:00:18.067Z,22.80
2017-08-24T10:02:46.389Z,22.80
2017-08-24T10:05:14.691Z,22.80
2017-08-24T10:07:43.021Z,22.60
2017-08-24T10:10:11.328Z,22.30
2017-08-24T10:12:39.656Z,22.30
2017-08-24T10:15:07.959Z,22.40
2017-08-24T10:17:36.259Z,22.50
2017-08-24T10:20:04.580Z,22.60
2017-08-24T10:22:32.884Z,22.70
2017-08-24T10:25:00.445Z,22.60
2017-08-24T10:27:28.752Z,22.90
2017-08-24T10:29:57.185Z,23.10
2017-08-24T10:32:25.410Z,23.20
2017-08-24T10:34:53.752Z,23.30
2017-08-24T10:37:22.056Z,23.20
2017-08-24T10:39:50.364Z,23.20
2017-08-24T10:42:18.693Z,23.10
2017-08-24T10:44:46.992Z,23.20
2017-08-24T10:47:15.321Z,23.50
2017-08-24T10:49:43.628Z,24.00
2017-08-24T10:52:11.954Z,24.20
2017-08-24T10:54:40.259Z,24.40
2017-08-24T10:57:08.592Z,24.80
2017-08-24T10:59:36.896Z,25.20
2017-08-24T11:02:05.204Z,25.50
2017-08-24T11:04:33.536Z,25.50
2017-08-24T11:07:01.838Z,25.80
2017-08-24T11:09:30.158Z,25.60
2017-08-24T11:11:58.461Z,25.60
2017-08-24T11:14:26.780Z,25.80
2017-08-24T11:16:55.078Z,26.10
2017-08-24T11:19:23.411Z,26.10
2017-08-24T11:21:51.719Z,26.00
2017-08-24T11:24:20.030Z,26.10
2017-08-24T11:26:48.352Z,25.90
2017-08-24T11:29:16.662Z,25.40
2017-08-24T11:31:44.988Z,25.00
2017-08-24T11:34:13.287Z,25.00
2017-08-24T11:36:41.612Z,25.00
2017-08-24T11:39:09.921Z,25.10
2017-08-24T11:41:38.252Z,25.10
2017-08-24T11:44:06.563Z,25.30
2017-08-24T11:46:34.867Z,25.50
2017-08-24T11:49:03.197Z,25.70
2017-08-24T11:51:31.532Z,25.90
2017-08-24T11:53:59.857Z,25.90
2017-08-24T11:56:28.159Z,25.90
2017-08-24T11:58:56.485Z,26.00
2017-08-24T12:01:24.779Z,26.30
2017-08-24T12:03:53.103Z,26.30
2017-08-24T12:06:21.408Z,26.20
2017-08-24T12:08:49.711Z,26.30
2017-08-24T12:11:18.118Z,26.50
2017-08-24T12:13:46.418Z,26.90
2017-08-24T12:16:14.744Z,27.10
2017-08-24T12:18:43.043Z,27.40
2017-08-24T12:21:11.359Z,27.70
2017-08-24T12:23:39.658Z,27.60
2017-08-24T12:26:08.000Z,27.70
2017-08-24T12:28:36.300Z,27.70
2017-08-24T12:31:04.603Z,27.60
2017-08-24T12:33:32.925Z,27.30
2017-08-24T12:36:01.237Z,27.10
2017-08-24T12:38:29.563Z,27.00
2017-08-24T12:40:57.863Z,26.70
2017-08-24T12:43:26.182Z,26.70
2017-08-24T12:45:54.484Z,26.60
2017-08-24T12:48:22.836Z,26.80
2017-08-24T12:50:51.142Z,26.90
2017-08-24T12:53:19.452Z,27.10
2017-08-24T12:55:47.777Z,27.40
2017-08-24T12:58:16.079Z,27.40
2017-08-24T13:00:44.416Z,27.60
2017-08-24T13:03:12.721Z,27.60
2017-08-24T13:05:41.039Z,27.20
2017-08-24T13:08:09.343Z,27.20
2017-08-24T13:10:37.675Z,27.50
2017-08-24T13:13:05.975Z,27.90
2017-08-24T13:15:34.384Z,27.70
2017-08-24T13:18:02.715Z,27.30
2017-08-24T13:20:31.035Z,27.20
2017-08-24T13:22:59.357Z,27.40
2017-08-24T13:25:27.667Z,27.70
2017-08-24T13:27:55.227Z,27.60
2017-08-24T13:30:23.526Z,28.20
2017-08-24T13:32:51.855Z,28.50
2017-08-24T13:35:20.188Z,28.70
2017-08-24T13:37:48.491Z,28.70
2017-08-24T13:40:16.810Z,28.50
2017-08-24T13:42:45.114Z,28.00
2017-08-24T13:45:13.489Z,27.90
2017-08-24T13:47:41.787Z,27.80
2017-08-24T13:50:10.124Z,28.00
2017-08-24T13:52:38.515Z,27.80
2017-08-24T13:55:06.820Z,27.40
2017-08-24T13:57:35.199Z,27.10
2017-08-24T14:00:03.498Z,27.20
2017-08-24T14:02:31.855Z,27.20
2017-08-24T14:05:00.156Z,27.20
2017-08-24T14:07:28.655Z,27.00
2017-08-24T14:09:56.958Z,26.90
2017-08-24T14:12:25.304Z,26.90
2017-08-24T14:14:53.615Z,26.90
2017-08-24T14:17:21.998Z,26.90
2017-08-24T14:19:50.331Z,26.90
2017-08-24T14:22:18.647Z,27.20
2017-08-24T14:24:46.967Z,27.50
2017-08-24T14:27:15.302Z,27.80
2017-08-24T14:29:43.663Z,28.00
2017-08-24T14:32:11.968Z,28.20
2017-08-24T14:34:40.376Z,28.10
2017-08-24T14:37:08.700Z,27.80
2017-08-24T14:39:37.003Z,27.80
2017-08-24T14:42:05.341Z,28.00
2017-08-24T14:44:33.643Z,28.20
2017-08-24T14:47:01.972Z,28.40
2017-08-24T14:49:30.300Z,28.50
2017-08-24T14:51:58.628Z,28.60
2017-08-24T14:54:26.955Z,28.50
2017-08-24T14:56:55.275Z,28.20
2017-08-24T14:59:23.626Z,28.10
2017-08-24T15:01:51.925Z,27.90
2017-08-24T15:04:20.291Z,27.80
2017-08-24T15:06:48.648Z,27.70
2017-08-24T15:09:16.975Z,27.60
2017-08-24T15:11:45.299Z,27.30
2017-08-24T15:14:13.636Z,27.00
2017-08-24T15:16:41.961Z,27.00
2017-08-24T15:19:10.304Z,27.30
2017-08-24T15:21:38.609Z,27.40
2017-08-24T15:24:06.906Z,27.40
2017-08-24T15:26:35.674Z,27.30
2017-08-24T15:29:03.971Z,27.30
2017-08-24T15:31:32.369Z,27.10
2017-08-24T15:34:00.678Z,27.00
2017-08-24T15:36:28.999Z,26.90
2017-08-24T15:38:57.311Z,26.90
2017-08-24T15:41:25.644Z,26.80
2017-08-24T15:43:54.047Z,26.80
2017-08-24T15:46:22.383Z,26.70
2017-08-24T15:48:50.688Z,26.60
2017-08-24T15:51:19.940Z,26.60
2017-08-24T15:53:48.277Z,26.50
2017-08-24T15:56:16.572Z,26.40
2017-08-24T15:58:44.917Z,26.40
2017-08-24T16:01:13.219Z,26.30
2017-08-24T16:03:41.576Z,26.20
2017-08-24T16:06:09.883Z,26.30
2017-08-24T16:08:38.219Z,26.20
2017-08-24T16:11:06.529Z,26.10
2017-08-24T16:13:34.067Z,26.10
2017-08-24T16:16:02.464Z,26.10
2017-08-24T16:18:30.842Z,26.00
2017-08-24T16:20:59.205Z,25.90
2017-08-24T16:23:27.511Z,25.70
2017-08-24T16:25:55.864Z,25.70
2017-08-24T16:28:24.171Z,25.70
2017-08-24T16:30:52.523Z,25.60
2017-08-24T16:33:20.872Z,25.50
2017-08-24T16:35:49.276Z,25.50
2017-08-24T16:38:17.608Z,25.50
2017-08-24T16:40:45.925Z,25.60
2017-08-24T16:43:14.260Z,25.40
2017-08-24T16:45:42.580Z,25.40
2017-08-24T16:48:10.908Z,25.40
2017-08-24T16:50:39.219Z,25.30
2017-08-24T16:53:07.564Z,25.20
2017-08-24T16:55:35.866Z,25.10
2017-08-24T16:58:04.172Z,25.00
2017-08-24T17:00:32.507Z,25.00
2017-08-24T17:03:00.826Z,24.90
2017-08-24T17:05:29.160Z,24.80
2017-08-24T17:07:57.581Z,24.80
2017-08-24T17:10:25.953Z,25.00
2017-08-24T17:12:54.268Z,25.50
2017-08-24T17:15:22.612Z,26.20
2017-08-24T17:17:50.996Z,26.90
2017-08-24T17:20:19.322Z,27.40
2017-08-24T17:22:47.647Z,27.90
2017-08-24T17:25:15.967Z,28.40
2017-08-24T17:27:44.310Z,28.80
2017-08-24T17:30:11.880Z,28.80
2017-08-24T17:32:40.229Z,28.80
2017-08-24T17:35:08.604Z,28.60
2017-08-24T17:37:37.000Z,28.30
2017-08-24T17:40:05.307Z,28.10
2017-08-24T17:42:33.618Z,27.90
2017-08-24T17:45:01.944Z,27.50
2017-08-24T17:47:30.336Z,27.10
2017-08-24T17:49:58.660Z,26.60
2017-08-24T17:52:26.972Z,26.10
2017-08-24T17:54:55.303Z,25.40
2017-08-24T17:57:23.611Z,24.80
2017-08-24T17:59:51.962Z,24.20
2017-08-24T18:02:20.267Z,23.70
2017-08-24T18:04:47.814Z,23.70
2017-08-24T18:07:16.143Z,22.90
2017-08-24T18:09:44.451Z,22.50
2017-08-24T18:12:12.784Z,22.20
2017-08-24T18:14:41.115Z,22.00
2017-08-24T18:17:09.440Z,21.70
2017-08-24T18:19:37.763Z,21.50
2017-08-24T18:22:06.099Z,21.30
2017-08-24T18:24:34.416Z,21.00
2017-08-24T18:27:02.727Z,20.80
2017-08-24T18:29:31.052Z,20.60
2017-08-24T18:31:59.369Z,20.40
2017-08-24T18:34:27.703Z,20.30
2017-08-24T18:36:56.020Z,20.00
2017-08-24T18:39:24.348Z,19.80
2017-08-24T18:41:52.664Z,19.70
2017-08-24T18:44:21.007Z,19.50
2017-08-24T18:46:49.351Z,19.40
2017-08-24T18:49:17.643Z,19.20
2017-08-24T18:51:45.991Z,19.10
2017-08-24T18:54:14.300Z,18.90
2017-08-24T18:56:42.644Z,18.80
2017-08-24T18:59:10.956Z,18.70
2017-08-24T19:01:39.300Z,18.60
2017-08-24T19:04:07.608Z,18.50
2017-08-24T19:06:36.574Z,18.40
2017-08-24T19:09:04.884Z,18.30
2017-08-24T19:11:33.215Z,18.20
2017-08-24T19:14:01.562Z,18.10
2017-08-24T19:16:30.992Z,18.00
2017-08-24T19:18:59.328Z,17.90
2017-08-24T19:21:27.644Z,17.80
2017-08-24T19:23:56.000Z,17.70
2017-08-24T19:26:24.306Z,17.60
2017-08-24T19:28:52.626Z,17.50
2017-08-24T19:31:20.958Z,17.30
2017-08-24T19:33:49.277Z,17.20
2017-08-24T19:36:17.620Z,17.10
2017-08-24T19:38:45.936Z,17.00
2017-08-24T19:41:13.572Z,16.90
2017-08-24T19:43:41.879Z,16.90
2017-08-24T19:46:10.195Z,16.80
2017-08-24T19:48:38.523Z,16.70
2017-08-24T19:51:06.851Z,16.70
2017-08-24T19:53:35.178Z,16.60
2017-08-24T19:56:03.498Z,16.50
2017-08-24T19:58:31.831Z,16.40
2017-08-24T20:01:00.154Z,16.30
2017-08-24T20:03:28.458Z,16.20
2017-08-24T20:05:56.836Z,16.20
2017-08-24T20:08:25.139Z,16.20
2017-08-24T20:10:53.519Z,16.10
2017-08-24T20:13:21.832Z,16.10
2017-08-24T20:15:50.168Z,16.10
2017-08-24T20:18:18.480Z,16.00
2017-08-24T20:20:46.824Z,16.00
2017-08-24T20:23:15.139Z,16.00
2017-08-24T20:25:43.451Z,15.90
2017-08-24T20:28:11.801Z,15.80
2017-08-24T20:30:40.192Z,15.80
2017-08-24T20:33:08.529Z,15.70
2017-08-24T20:35:36.862Z,15.70
2017-08-24T20:38:05.248Z,15.70
2017-08-24T20:40:33.570Z,15.70
2017-08-24T20:43:01.916Z,15.70
2017-08-24T20:45:30.231Z,15.70
2017-08-24T20:47:58.543Z,15.70
2017-08-24T20:50:26.902Z,15.70
2017-08-24T20:52:55.214Z,15.60
2017-08-24T20:55:23.539Z,15.60
2017-08-24T20:57:51.852Z,15.60
2017-08-24T21:00:20.179Z,15.50
2017-08-24T21:02:48.487Z,15.40
2017-08-24T21:05:16.820Z,15.30
2017-08-24T21:07:45.147Z,15.20
2017-08-24T21:10:13.471Z,15.20
2017-08-24T21:12:41.823Z,15.20
2017-08-24T21:15:10.141Z,15.10
2017-08-24T21:17:38.479Z,15.10
2017-08-24T21:20:06.803Z,15.00
2017-08-24T21:22:35.130Z,15.00
2017-08-24T21:25:03.479Z,15.00
2017-08-24T21:27:31.783Z,15.10
2017-08-24T21:30:00.168Z,15.00
2017-08-24T21:32:28.480Z,15.00
2017-08-24T21:34:56.847Z,15.00
2017-08-24T21:37:25.155Z,15.00
2017-08-24T21:39:53.500Z,14.90
2017-08-24T21:42:21.816Z,14.90
2017-08-24T21:44:50.208Z,14.90
2017-08-24T21:47:18.539Z,14.90
2017-08-24T21:49:46.864Z,14.80
2017-08-24T21:52:15.199Z,14.80
2017-08-24T21:54:42.747Z,14.80
2017-08-24T21:57:11.095Z,14.80
2017-08-24T21:59:39.447Z,14.80
2017-08-24T22:02:07.751Z,14.80
2017-08-24T22:04:36.128Z,14.70
2017-08-24T22:07:04.435Z,14.70
2017-08-24T22:09:32.791Z,14.70
2017-08-24T22:12:01.102Z,14.60
2017-08-24T22:14:29.436Z,14.60
2017-08-24T22:16:57.748Z,14.50
2017-08-24T22:19:26.067Z,14.50
2017-08-24T22:21:54.387Z,14.50
2017-08-24T22:24:22.690Z,14.50
2017-08-24T22:26:51.019Z,14.50
2017-08-24T22:29:19.380Z,14.40
2017-08-24T22:31:47.731Z,14.40
2017-08-24T22:34:16.043Z,14.40
2017-08-24T22:36:44.353Z,14.40
2017-08-24T22:39:12.705Z,14.40
2017-08-24T22:41:41.016Z,14.30
2017-08-24T22:44:09.367Z,14.30
2017-08-24T22:46:37.854Z,14.30
2017-08-24T22:49:06.239Z,14.20
2017-08-24T22:51:34.553Z,14.20
2017-08-24T22:54:08.471Z,14.10
2017-08-24T22:56:42.351Z,14.10
2017-08-24T22:59:16.319Z,14.10
2017-08-24T23:01:50.239Z,14.00
2017-08-24T23:04:18.620Z,14.00
2017-08-24T23:06:46.946Z,14.00
2017-08-24T23:09:15.313Z,14.00
2017-08-24T23:11:43.624Z,13.90
2017-08-24T23:14:12.011Z,13.90
2017-08-24T23:16:40.353Z,13.90
2017-08-24T23:19:08.667Z,13.90
2017-08-24T23:21:37.019Z,13.90
2017-08-24T23:24:05.343Z,13.90
2017-08-24T23:26:33.688Z,13.90
2017-08-24T23:29:02.072Z,13.80
2017-08-24T23:31:30.395Z,13.80
2017-08-24T23:33:58.762Z,13.80
2017-08-24T23:36:27.092Z,13.70
2017-08-24T23:38:55.507Z,13.70
2017-08-24T23:41:23.823Z,13.70
2017-08-24T23:43:52.175Z,13.60
2017-08-24T23:46:20.488Z,13.60
2017-08-24T23:48:48.795Z,13.60
2017-08-24T23:51:17.187Z,13.50
2017-08-24T23:53:45.503Z,13.50
2017-08-24T23:56:13.848Z,13.40
2017-08-24T23:58:42.164Z,13.40
